Terminal Aerodrome Forecast
Issued by NWS Austin/San Antonio, TX

Home | Current Version | Previous Version | Text Only | Print | Product List | Glossary On
Versions: 1 2 3 4 5 6 7 8 9 10 11 12 13 14 15 16 17 18 19 20 21 22 23 24 25 26
728
FTUS44 KEWX 240539
TAFSAT
TAF
KSAT 240539Z 2406/2512 16014G24KT P6SM BKN018 BKN250
     FM241300 17012KT P6SM VCSH BKN012 OVC040
     FM241700 23012G22KT P6SM SCT040 SCT250
     FM242300 21005KT P6SM FEW250
     FM250800 34007KT P6SM FEW250=

USA.gov is the U.S. government's official web portal to all federal, state and local government web resources and services.